createdAt,value
2022-11-27T00:02:13.299Z,5.99
2022-11-27T00:04:39.752Z,5.95
2022-11-27T00:07:06.110Z,5.84
2022-11-27T00:09:33.400Z,5.85
2022-11-27T00:11:59.768Z,5.80
2022-11-27T00:14:26.136Z,5.83
2022-11-27T00:16:52.650Z,5.71
2022-11-27T00:19:19.030Z,5.84
2022-11-27T00:21:45.487Z,5.80
2022-11-27T00:24:12.011Z,5.73
2022-11-27T00:26:38.673Z,5.56
2022-11-27T00:29:06.350Z,5.60
2022-11-27T00:31:34.069Z,5.66
2022-11-27T00:34:02.675Z,5.67
2022-11-27T00:36:32.372Z,5.66
2022-11-27T00:38:59.027Z,5.62
2022-11-27T00:41:27.600Z,5.56
2022-11-27T00:43:54.474Z,5.45
2022-11-27T00:46:28.105Z,5.46
2022-11-27T00:48:56.045Z,5.59
2022-11-27T00:51:23.421Z,5.55
2022-11-27T00:53:50.091Z,5.59
2022-11-27T00:56:21.427Z,5.62
2022-11-27T00:58:48.110Z,5.62
2022-11-27T01:01:28.918Z,5.24
2022-11-27T01:03:57.241Z,5.05
2022-11-27T01:06:24.181Z,4.96
2022-11-27T01:08:50.597Z,4.88
2022-11-27T01:11:19.964Z,4.85
2022-11-27T01:13:46.891Z,4.85
2022-11-27T01:16:19.482Z,4.82
2022-11-27T01:18:47.447Z,4.88
2022-11-27T01:21:16.313Z,4.93
2022-11-27T01:23:42.691Z,4.82
2022-11-27T01:26:10.453Z,4.95
2022-11-27T01:28:39.519Z,5.02
2022-11-27T01:31:07.373Z,4.92
2022-11-27T01:33:34.035Z,4.80
2022-11-27T01:36:02.091Z,4.78
2022-11-27T01:38:29.943Z,4.74
2022-11-27T01:41:08.526Z,4.78
2022-11-27T01:43:39.896Z,4.67
2022-11-27T01:46:13.994Z,4.62
2022-11-27T01:48:40.519Z,4.62
2022-11-27T01:51:06.911Z,4.65
2022-11-27T01:53:34.250Z,4.68
2022-11-27T01:56:00.875Z,4.69
2022-11-27T01:58:29.069Z,4.69
2022-11-27T02:00:56.004Z,4.70
2022-11-27T02:03:23.185Z,4.63
2022-11-27T02:05:49.628Z,4.64
2022-11-27T02:08:16.958Z,4.50
2022-11-27T02:10:49.205Z,4.35
2022-11-27T02:13:18.562Z,4.23
2022-11-27T02:15:55.178Z,4.24
2022-11-27T02:18:31.486Z,4.22
2022-11-27T02:21:04.455Z,4.31
2022-11-27T02:24:02.306Z,4.22
2022-11-27T02:26:41.454Z,4.20
2022-11-27T02:29:09.507Z,4.13
2022-11-27T02:32:02.172Z,3.92
2022-11-27T02:34:45.837Z,4.00
2022-11-27T02:37:18.487Z,4.05
2022-11-27T02:40:03.238Z,3.95
2022-11-27T02:42:33.775Z,3.93
2022-11-27T02:45:04.099Z,4.01
2022-11-27T02:47:31.154Z,4.12
2022-11-27T02:49:58.323Z,4.20
2022-11-27T02:52:26.476Z,4.27
2022-11-27T02:54:56.444Z,4.43
2022-11-27T02:57:24.575Z,4.39
2022-11-27T02:59:51.649Z,4.38
2022-11-27T03:02:22.966Z,4.26
2022-11-27T03:04:54.351Z,4.23
2022-11-27T03:07:33.443Z,4.20
2022-11-27T03:10:04.719Z,4.16
2022-11-27T03:12:31.131Z,4.16
2022-11-27T03:14:57.526Z,4.19
2022-11-27T03:18:00.748Z,4.31
2022-11-27T03:20:31.235Z,4.05
2022-11-27T03:22:57.687Z,4.10
2022-11-27T03:25:24.403Z,4.11
2022-11-27T03:27:56.768Z,4.20
2022-11-27T03:30:23.148Z,4.19
2022-11-27T03:32:49.639Z,3.99
2022-11-27T03:35:17.907Z,4.19
2022-11-27T03:37:44.450Z,4.26
2022-11-27T03:40:11.608Z,3.62
2022-11-27T03:42:49.487Z,3.43
2022-11-27T03:45:16.806Z,3.43
2022-11-27T03:47:51.340Z,3.51
2022-11-27T03:50:25.826Z,3.53
2022-11-27T03:53:15.918Z,3.36
2022-11-27T03:55:49.634Z,3.48
2022-11-27T03:58:26.748Z,3.50
2022-11-27T04:00:53.278Z,3.26
2022-11-27T04:03:25.843Z,2.96
2022-11-27T04:05:52.286Z,3.08
2022-11-27T04:08:18.664Z,3.00
2022-11-27T04:10:45.043Z,2.97
2022-11-27T04:13:11.427Z,3.07
2022-11-27T04:15:37.827Z,2.95
2022-11-27T04:18:04.222Z,2.80
2022-11-27T04:20:30.594Z,2.68
2022-11-27T04:22:57.108Z,2.67
2022-11-27T04:25:23.674Z,2.86
2022-11-27T04:27:50.070Z,3.22
2022-11-27T04:30:17.248Z,3.41
2022-11-27T04:32:43.727Z,3.73
2022-11-27T04:35:10.356Z,4.03
2022-11-27T04:37:36.908Z,4.32
2022-11-27T04:40:04.404Z,4.35
2022-11-27T04:42:30.877Z,4.54
2022-11-27T04:44:57.280Z,4.58
2022-11-27T04:47:24.075Z,4.57
2022-11-27T04:49:50.544Z,4.60
2022-11-27T04:52:17.030Z,4.82
2022-11-27T04:54:43.678Z,5.19
2022-11-27T04:57:10.125Z,5.28
2022-11-27T04:59:36.534Z,5.31
2022-11-27T05:02:03.060Z,5.41
2022-11-27T05:04:29.816Z,5.51
2022-11-27T05:06:56.194Z,5.50
2022-11-27T05:09:22.658Z,5.42
2022-11-27T05:11:49.011Z,5.48
2022-11-27T05:14:15.441Z,5.58
2022-11-27T05:16:42.868Z,5.60
2022-11-27T05:19:10.497Z,5.67
2022-11-27T05:21:37.653Z,5.51
2022-11-27T05:24:04.700Z,5.66
2022-11-27T05:26:31.106Z,5.70
2022-11-27T05:28:57.454Z,5.63
2022-11-27T05:31:23.903Z,5.69
2022-11-27T05:33:50.374Z,5.69
2022-11-27T05:36:16.795Z,5.79
2022-11-27T05:38:43.224Z,5.90
2022-11-27T05:41:09.596Z,5.82
2022-11-27T05:43:35.986Z,5.74
2022-11-27T05:46:10.215Z,5.73
2022-11-27T05:48:37.051Z,5.90
2022-11-27T05:51:04.263Z,5.90
2022-11-27T05:53:30.929Z,5.89
2022-11-27T05:56:14.766Z,5.97
2022-11-27T05:58:41.952Z,5.99
2022-11-27T06:01:09.497Z,6.00
2022-11-27T06:03:36.028Z,5.96
2022-11-27T06:06:14.430Z,6.00
2022-11-27T06:08:41.227Z,5.98
2022-11-27T06:11:18.705Z,5.89
2022-11-27T06:13:46.335Z,6.00
2022-11-27T06:16:15.531Z,5.98
2022-11-27T06:18:42.307Z,6.04
2022-11-27T06:21:11.446Z,5.98
2022-11-27T06:23:37.959Z,6.13
2022-11-27T06:26:15.656Z,6.03
2022-11-27T06:28:42.237Z,6.02
2022-11-27T06:31:17.751Z,6.05
2022-11-27T06:33:46.023Z,6.11
2022-11-27T06:36:12.384Z,6.22
2022-11-27T06:38:38.896Z,6.12
2022-11-27T06:41:14.179Z,6.17
2022-11-27T06:43:40.574Z,6.20
2022-11-27T06:46:08.522Z,6.31
2022-11-27T06:48:35.233Z,6.31
2022-11-27T06:51:05.871Z,6.34
2022-11-27T06:53:35.159Z,6.34
2022-11-27T06:56:10.124Z,6.46
2022-11-27T06:58:37.132Z,6.35
2022-11-27T07:01:06.382Z,6.49
2022-11-27T07:03:32.825Z,6.46
2022-11-27T07:06:00.189Z,6.46
2022-11-27T07:08:26.736Z,6.49
2022-11-27T07:10:53.082Z,6.42
2022-11-27T07:13:19.519Z,6.55
2022-11-27T07:15:46.464Z,6.50
2022-11-27T07:18:12.885Z,6.55
2022-11-27T07:20:39.249Z,6.56
2022-11-27T07:23:05.618Z,6.64
2022-11-27T07:25:31.984Z,6.55
2022-11-27T07:27:58.510Z,6.66
2022-11-27T07:30:24.955Z,6.75
2022-11-27T07:32:51.353Z,6.63
2022-11-27T07:35:18.020Z,6.67
2022-11-27T07:37:44.395Z,6.85
2022-11-27T07:40:10.904Z,6.93
2022-11-27T07:42:38.629Z,6.86
2022-11-27T07:45:06.931Z,7.03
2022-11-27T07:47:33.331Z,7.07
2022-11-27T07:50:00.411Z,7.07
2022-11-27T07:52:27.321Z,7.06
2022-11-27T07:54:53.994Z,7.08
2022-11-27T07:57:20.379Z,7.10
2022-11-27T07:59:47.676Z,7.21
2022-11-27T08:02:14.666Z,7.26
2022-11-27T08:04:41.366Z,7.19
2022-11-27T08:07:07.994Z,7.14
2022-11-27T08:09:34.389Z,7.15
2022-11-27T08:12:00.928Z,7.24
2022-11-27T08:14:27.348Z,7.22
2022-11-27T08:16:53.804Z,7.15
2022-11-27T08:19:20.492Z,7.17
2022-11-27T08:21:46.957Z,7.24
2022-11-27T08:24:13.435Z,7.34
2022-11-27T08:26:40.116Z,7.43
2022-11-27T08:29:07.024Z,7.52
2022-11-27T08:31:33.898Z,7.51
2022-11-27T08:34:00.479Z,7.49
2022-11-27T08:36:26.921Z,7.82
2022-11-27T08:38:55.036Z,7.87
2022-11-27T08:41:21.575Z,7.93
2022-11-27T08:43:47.949Z,8.04
2022-11-27T08:46:14.388Z,8.13
2022-11-27T08:48:41.851Z,8.24
2022-11-27T08:51:10.865Z,8.17
2022-11-27T08:53:37.583Z,8.18
2022-11-27T08:56:10.113Z,8.20
2022-11-27T08:58:36.931Z,8.25
2022-11-27T09:01:17.597Z,8.25
2022-11-27T09:03:44.295Z,8.25
2022-11-27T09:06:13.041Z,8.22
2022-11-27T09:08:40.136Z,8.28
2022-11-27T09:11:07.063Z,8.37
2022-11-27T09:13:36.700Z,8.37
2022-11-27T09:16:08.312Z,8.45
2022-11-27T09:18:34.726Z,8.45
2022-11-27T09:21:03.446Z,8.48
2022-11-27T09:23:30.308Z,8.48
2022-11-27T09:26:01.172Z,8.56
2022-11-27T09:28:31.386Z,8.51
2022-11-27T09:31:00.104Z,8.64
2022-11-27T09:33:27.649Z,8.70
2022-11-27T09:35:54.156Z,8.67
2022-11-27T09:38:20.797Z,8.73
2022-11-27T09:41:01.769Z,8.64
2022-11-27T09:43:31.894Z,8.69
2022-11-27T09:46:03.929Z,8.74
2022-11-27T09:48:39.155Z,8.68
2022-11-27T09:51:11.306Z,8.90
2022-11-27T09:53:47.765Z,8.82
2022-11-27T09:56:17.485Z,9.08
2022-11-27T09:58:47.879Z,9.14
2022-11-27T10:01:17.089Z,8.83
2022-11-27T10:03:44.877Z,8.84
2022-11-27T10:06:11.159Z,8.96
2022-11-27T10:08:46.228Z,9.09
2022-11-27T10:11:48.716Z,9.02
2022-11-27T10:14:42.198Z,9.05
2022-11-27T10:17:20.342Z,9.13
2022-11-27T10:20:18.444Z,9.12
2022-11-27T10:23:17.046Z,9.20
2022-11-27T10:25:58.798Z,9.22
2022-11-27T10:28:36.539Z,9.28
2022-11-27T10:31:13.763Z,9.39
2022-11-27T10:33:53.622Z,9.42
2022-11-27T10:36:43.821Z,9.49
2022-11-27T10:39:16.277Z,9.63
2022-11-27T10:41:52.239Z,9.68
2022-11-27T10:44:26.911Z,9.60
2022-11-27T10:46:57.274Z,9.78
2022-11-27T10:49:23.667Z,9.80
2022-11-27T10:51:50.020Z,9.76
2022-11-27T10:54:26.377Z,9.85
2022-11-27T10:57:02.237Z,9.77
2022-11-27T10:59:34.603Z,9.85
2022-11-27T11:02:03.225Z,9.92
2022-11-27T11:04:48.449Z,9.83
2022-11-27T11:07:26.465Z,9.95
2022-11-27T11:09:53.807Z,9.98
2022-11-27T11:12:21.768Z,10.04
2022-11-27T11:14:56.009Z,9.93
2022-11-27T11:17:26.404Z,9.94
2022-11-27T11:19:53.439Z,9.93
2022-11-27T11:22:20.146Z,9.95
2022-11-27T11:24:52.033Z,9.97
2022-11-27T11:27:26.629Z,10.00
2022-11-27T11:29:55.428Z,10.03
2022-11-27T11:32:37.756Z,10.03
2022-11-27T11:35:22.845Z,10.06
2022-11-27T11:37:49.451Z,9.88
2022-11-27T11:40:22.731Z,10.05
2022-11-27T11:42:59.623Z,9.98
2022-11-27T11:45:32.277Z,10.08
2022-11-27T11:48:01.165Z,10.23
2022-11-27T11:50:44.236Z,10.17
2022-11-27T11:53:42.547Z,10.30
2022-11-27T11:56:35.386Z,10.53
2022-11-27T11:59:23.034Z,10.57
2022-11-27T12:02:14.303Z,10.55
2022-11-27T12:05:14.733Z,10.33
2022-11-27T12:07:57.820Z,10.44
2022-11-27T12:10:33.722Z,10.50
2022-11-27T12:13:12.167Z,10.32
2022-11-27T12:16:01.609Z,10.53
2022-11-27T12:18:56.684Z,10.50
2022-11-27T12:21:22.962Z,10.42
2022-11-27T12:24:27.913Z,10.37
2022-11-27T12:27:31.897Z,10.56
2022-11-27T12:30:39.603Z,10.43
2022-11-27T12:33:26.787Z,10.53
2022-11-27T12:36:01.123Z,10.63
2022-11-27T12:39:25.585Z,10.61
2022-11-27T12:42:07.079Z,10.62
2022-11-27T12:44:54.201Z,10.57
2022-11-27T12:47:25.868Z,10.61
2022-11-27T12:49:58.607Z,10.75
2022-11-27T12:52:46.272Z,10.72
2022-11-27T12:55:16.772Z,10.64
2022-11-27T12:57:49.566Z,10.57
2022-11-27T13:00:19.879Z,10.55
2022-11-27T13:03:09.106Z,10.56
2022-11-27T13:05:46.912Z,10.30
2022-11-27T13:08:33.940Z,10.42
2022-11-27T13:11:07.007Z,10.46
2022-11-27T13:13:54.032Z,10.28
2022-11-27T13:16:27.639Z,10.21
2022-11-27T13:19:01.451Z,10.14
2022-11-27T13:21:31.197Z,10.09
2022-11-27T13:24:00.703Z,10.11
2022-11-27T13:26:45.005Z,10.00
2022-11-27T13:29:29.750Z,10.03
2022-11-27T13:31:59.563Z,10.04
2022-11-27T13:34:27.989Z,10.01
2022-11-27T13:37:05.728Z,9.86
2022-11-27T13:39:37.817Z,9.92
2022-11-27T13:42:08.720Z,9.98
2022-11-27T13:44:38.189Z,9.93
2022-11-27T13:47:08.075Z,9.99
2022-11-27T13:49:38.837Z,10.02
2022-11-27T13:52:19.762Z,9.94
2022-11-27T13:54:58.096Z,10.07
2022-11-27T13:57:25.462Z,10.14
2022-11-27T14:00:12.808Z,10.09
2022-11-27T14:02:49.033Z,9.98
2022-11-27T14:05:20.607Z,10.13
2022-11-27T14:07:55.126Z,10.15
2022-11-27T14:10:24.685Z,10.08
2022-11-27T14:13:01.719Z,10.07
2022-11-27T14:15:29.996Z,10.15
2022-11-27T14:18:19.109Z,10.25
2022-11-27T14:20:55.454Z,10.23
2022-11-27T14:23:35.304Z,10.23
2022-11-27T14:26:19.967Z,10.05
2022-11-27T14:28:50.091Z,10.07
2022-11-27T14:31:27.748Z,10.12
2022-11-27T14:34:14.337Z,10.08
2022-11-27T14:36:40.632Z,9.95
2022-11-27T14:39:07.001Z,9.96
2022-11-27T14:41:33.405Z,9.92
2022-11-27T14:44:07.354Z,9.95
2022-11-27T14:46:36.126Z,9.90
2022-11-27T14:49:03.221Z,10.05
2022-11-27T14:51:32.542Z,10.13
2022-11-27T14:54:01.436Z,9.99
2022-11-27T14:56:33.818Z,9.92
2022-11-27T14:59:00.901Z,9.98
2022-11-27T15:01:38.279Z,9.95
2022-11-27T15:04:07.132Z,9.95
2022-11-27T15:06:40.362Z,9.92
2022-11-27T15:09:30.870Z,9.83
2022-11-27T15:11:58.753Z,9.70
2022-11-27T15:14:28.558Z,9.81
2022-11-27T15:16:55.444Z,9.71
2022-11-27T15:19:28.863Z,9.76
2022-11-27T15:21:55.394Z,9.69
2022-11-27T15:24:34.036Z,9.58
2022-11-27T15:27:15.578Z,9.48
2022-11-27T15:30:14.223Z,9.39
2022-11-27T15:32:51.854Z,9.46
2022-11-27T15:35:25.437Z,9.47
2022-11-27T15:37:52.907Z,9.53
2022-11-27T15:40:29.195Z,9.46
2022-11-27T15:42:55.620Z,9.38
2022-11-27T15:45:22.366Z,9.34
2022-11-27T15:47:48.900Z,9.22
2022-11-27T15:50:16.456Z,9.16
2022-11-27T15:52:43.367Z,9.12
2022-11-27T15:55:17.140Z,9.02
2022-11-27T15:57:43.523Z,8.96
2022-11-27T16:00:10.916Z,8.85
2022-11-27T16:02:37.820Z,8.69
2022-11-27T16:05:08.297Z,8.59
2022-11-27T16:07:34.755Z,8.64
2022-11-27T16:10:01.162Z,8.67
2022-11-27T16:12:27.505Z,8.65
2022-11-27T16:14:53.875Z,8.50
2022-11-27T16:17:20.273Z,8.51
2022-11-27T16:19:46.625Z,8.34
2022-11-27T16:22:12.998Z,8.50
2022-11-27T16:24:40.211Z,8.41
2022-11-27T16:27:07.257Z,8.33
2022-11-27T16:29:33.641Z,8.42
2022-11-27T16:32:00.810Z,8.30
2022-11-27T16:34:27.412Z,8.16
2022-11-27T16:36:53.771Z,8.35
2022-11-27T16:39:20.136Z,8.26
2022-11-27T16:41:46.494Z,8.24
2022-11-27T16:44:14.162Z,8.30
2022-11-27T16:46:41.262Z,8.36
2022-11-27T16:49:07.636Z,8.26
2022-11-27T16:51:35.024Z,8.16
2022-11-27T16:54:03.034Z,8.18
2022-11-27T16:56:30.787Z,8.04
2022-11-27T16:59:02.691Z,8.17
2022-11-27T17:01:32.588Z,8.23
2022-11-27T17:03:59.560Z,8.18
2022-11-27T17:06:28.272Z,8.07
2022-11-27T17:08:55.886Z,8.08
2022-11-27T17:11:24.799Z,8.14
2022-11-27T17:13:52.228Z,8.13
2022-11-27T17:16:19.511Z,8.10
2022-11-27T17:18:46.333Z,8.09
2022-11-27T17:21:18.837Z,8.16
2022-11-27T17:23:46.686Z,8.06
2022-11-27T17:26:15.739Z,8.03
2022-11-27T17:28:42.115Z,8.01
2022-11-27T17:31:10.463Z,7.92
2022-11-27T17:33:36.884Z,7.98
2022-11-27T17:36:03.549Z,7.96
2022-11-27T17:38:29.914Z,8.00
2022-11-27T17:41:07.390Z,8.10
2022-11-27T17:43:34.661Z,8.08
2022-11-27T17:46:01.069Z,7.99
2022-11-27T17:48:27.753Z,7.96
2022-11-27T17:50:54.661Z,7.81
2022-11-27T17:53:21.019Z,7.78
2022-11-27T17:55:47.407Z,7.72
2022-11-27T17:58:13.827Z,7.72
2022-11-27T18:00:40.547Z,7.91
2022-11-27T18:03:07.587Z,7.86
2022-11-27T18:05:38.159Z,7.79
2022-11-27T18:08:05.303Z,7.83
2022-11-27T18:10:33.625Z,7.79
2022-11-27T18:13:00.048Z,7.88
2022-11-27T18:15:26.398Z,7.87
2022-11-27T18:17:52.757Z,7.78
2022-11-27T18:20:19.252Z,7.81
2022-11-27T18:22:45.635Z,7.78
2022-11-27T18:25:12.116Z,7.81
2022-11-27T18:27:38.481Z,7.93
2022-11-27T18:30:05.524Z,7.67
2022-11-27T18:32:31.884Z,7.72
2022-11-27T18:34:58.258Z,7.85
2022-11-27T18:37:24.919Z,7.93
2022-11-27T18:39:51.347Z,7.86
2022-11-27T18:42:17.724Z,7.98
2022-11-27T18:44:44.973Z,7.96
2022-11-27T18:47:12.481Z,7.82
2022-11-27T18:49:40.433Z,7.85
2022-11-27T18:52:07.887Z,7.90
2022-11-27T18:54:36.267Z,7.91
2022-11-27T18:57:03.402Z,7.90
2022-11-27T18:59:29.768Z,7.99
2022-11-27T19:01:56.260Z,8.18
2022-11-27T19:04:22.733Z,8.12
2022-11-27T19:06:49.111Z,8.05
2022-11-27T19:09:15.636Z,8.13
2022-11-27T19:11:42.463Z,8.03
2022-11-27T19:14:09.153Z,8.02
2022-11-27T19:16:41.617Z,7.97
2022-11-27T19:19:16.859Z,7.97
2022-11-27T19:21:54.834Z,7.90
2022-11-27T19:24:21.198Z,7.86
2022-11-27T19:26:47.542Z,7.84
2022-11-27T19:29:14.644Z,7.78
2022-11-27T19:31:41.457Z,7.91
2022-11-27T19:34:08.178Z,7.92
2022-11-27T19:36:35.307Z,7.75
2022-11-27T19:39:04.359Z,7.72
2022-11-27T19:41:31.034Z,7.88
2022-11-27T19:43:57.427Z,7.85
2022-11-27T19:46:29.614Z,7.82
2022-11-27T19:48:56.733Z,7.85
2022-11-27T19:51:24.591Z,7.98
2022-11-27T19:53:51.039Z,7.79
2022-11-27T19:56:17.719Z,7.86
2022-11-27T19:58:44.134Z,7.78
2022-11-27T20:01:13.668Z,7.84
2022-11-27T20:03:40.110Z,7.75
2022-11-27T20:06:08.032Z,7.77
2022-11-27T20:08:34.702Z,7.70
2022-11-27T20:11:01.687Z,7.56
2022-11-27T20:13:28.236Z,7.62
2022-11-27T20:15:55.411Z,7.45
2022-11-27T20:18:21.867Z,7.48
2022-11-27T20:20:48.722Z,7.48
2022-11-27T20:23:15.498Z,7.49
2022-11-27T20:25:42.280Z,7.52
2022-11-27T20:28:09.190Z,7.51
2022-11-27T20:30:38.676Z,7.50
2022-11-27T20:33:07.693Z,7.46
2022-11-27T20:35:34.372Z,7.48
2022-11-27T20:38:00.771Z,7.27
2022-11-27T20:40:28.252Z,7.32
2022-11-27T20:42:54.657Z,7.33
2022-11-27T20:45:21.043Z,7.50
2022-11-27T20:47:47.409Z,7.50
2022-11-27T20:50:13.782Z,7.45
2022-11-27T20:52:40.161Z,7.43
2022-11-27T20:55:07.015Z,7.30
2022-11-27T20:57:33.375Z,7.41
2022-11-27T20:59:59.762Z,7.34
2022-11-27T21:02:26.229Z,7.33
2022-11-27T21:04:52.637Z,7.32
2022-11-27T21:07:20.393Z,7.34
2022-11-27T21:09:46.836Z,7.37
2022-11-27T21:12:13.649Z,7.35
2022-11-27T21:14:40.062Z,7.32
2022-11-27T21:17:06.538Z,7.19
2022-11-27T21:19:32.939Z,7.20
2022-11-27T21:21:59.350Z,7.17
2022-11-27T21:24:28.374Z,7.28
2022-11-27T21:26:54.799Z,7.36
2022-11-27T21:29:25.301Z,7.21
2022-11-27T21:31:52.767Z,7.14
2022-11-27T21:34:19.262Z,7.13
2022-11-27T21:36:45.690Z,7.11
2022-11-27T21:39:14.456Z,7.07
2022-11-27T21:41:40.865Z,6.86
2022-11-27T21:44:07.248Z,7.01
2022-11-27T21:46:33.677Z,7.09
2022-11-27T21:49:01.092Z,6.93
2022-11-27T21:51:28.913Z,7.11
2022-11-27T21:53:55.854Z,7.15
2022-11-27T21:56:24.497Z,7.10
2022-11-27T21:58:51.463Z,7.20
2022-11-27T22:01:22.405Z,7.28
2022-11-27T22:03:51.363Z,7.49
2022-11-27T22:06:18.347Z,7.74
2022-11-27T22:08:46.780Z,7.87
2022-11-27T22:11:15.967Z,7.92
2022-11-27T22:13:42.796Z,8.00
2022-11-27T22:16:11.530Z,7.96
2022-11-27T22:18:38.035Z,8.05
2022-11-27T22:21:05.615Z,8.09
2022-11-27T22:23:32.042Z,8.09
2022-11-27T22:26:08.867Z,8.14
2022-11-27T22:28:36.080Z,8.13
2022-11-27T22:31:30.039Z,8.37
2022-11-27T22:33:57.085Z,8.19
2022-11-27T22:36:24.986Z,8.25
2022-11-27T22:38:53.148Z,8.31
2022-11-27T22:41:21.770Z,8.25
2022-11-27T22:43:48.471Z,8.29
2022-11-27T22:46:16.417Z,8.31
2022-11-27T22:48:43.199Z,8.35
2022-11-27T22:51:09.821Z,8.40
2022-11-27T22:53:36.956Z,8.45
2022-11-27T22:56:08.591Z,8.37
2022-11-27T22:58:41.012Z,8.49
2022-11-27T23:01:15.459Z,8.47
2022-11-27T23:03:41.838Z,8.44
2022-11-27T23:06:12.968Z,8.44
2022-11-27T23:08:40.373Z,8.39
2022-11-27T23:11:07.415Z,8.43
2022-11-27T23:13:33.838Z,8.41
2022-11-27T23:16:05.887Z,8.34
2022-11-27T23:18:33.208Z,8.31
2022-11-27T23:20:59.690Z,8.30
2022-11-27T23:23:26.043Z,8.32
2022-11-27T23:25:52.417Z,8.23
2022-11-27T23:28:18.790Z,8.33
2022-11-27T23:30:45.404Z,8.32
2022-11-27T23:33:11.759Z,8.32
2022-11-27T23:35:38.162Z,8.37
2022-11-27T23:38:04.576Z,8.33
2022-11-27T23:40:30.939Z,8.33
2022-11-27T23:42:57.284Z,8.24
2022-11-27T23:45:23.667Z,8.25
2022-11-27T23:47:50.380Z,8.23
2022-11-27T23:50:16.866Z,8.14
2022-11-27T23:52:43.298Z,8.14
2022-11-27T23:55:09.762Z,8.11
2022-11-27T23:57:36.140Z,8.18
